Time;durP1;ratioP1;P1;durP2;ratioP2;P2;SDS_P1;SDS_P2;PMS_P1;PMS_P2;Temp;Humidity;BMP_temperature;BMP_pressure;BME280_temperature;BME280_humidity;BME280_pressure;Samples;Min_cycle;Max_cycle;Signal;HPM_P1;HPM_P2
2022/07/31 00:00:32;;;;;;;8.63;3.70;;;23.30;55.50;;;;;;5003930;28;20088;-64
2022/07/31 00:02:58;;;;;;;7.88;3.83;;;23.30;55.50;;;;;;5014585;28;20029;-64
2022/07/31 00:05:24;;;;;;;7.45;3.55;;;23.30;55.50;;;;;;5034554;28;20090;-63
2022/07/31 00:07:51;;;;;;;7.57;3.67;;;23.30;55.70;;;;;;5024539;28;20033;-63
2022/07/31 00:10:17;;;;;;;7.70;3.70;;;23.30;55.60;;;;;;5028429;28;20064;-63
2022/07/31 00:12:43;;;;;;;9.18;3.40;;;23.20;55.50;;;;;;5015105;28;20451;-64
2022/07/31 00:15:09;;;;;;;7.28;3.30;;;23.20;56.20;;;;;;5027925;28;20079;-62
2022/07/31 00:17:40;;;;;;;7.30;3.53;;;23.20;55.70;;;;;;5020989;28;20026;-62
2022/07/31 00:20:08;;;;;;;6.47;3.15;;;23.20;55.70;;;;;;5015009;28;20088;-62
2022/07/31 00:22:34;;;;;;;6.13;3.08;;;23.10;55.80;;;;;;5013573;28;20025;-61
2022/07/31 00:25:00;;;;;;;7.35;3.05;;;23.10;56.00;;;;;;5023598;28;20034;-62
2022/07/31 00:27:25;;;;;;;6.20;3.17;;;23.10;56.20;;;;;;5023187;28;20021;-62
2022/07/31 00:29:51;;;;;;;8.45;3.10;;;23.10;56.40;;;;;;5033233;28;20524;-64
2022/07/31 00:32:17;;;;;;;7.65;3.38;;;23.00;56.40;;;;;;5014234;28;20034;-63
2022/07/31 00:34:42;;;;;;;7.68;3.60;;;23.00;56.40;;;;;;5031592;28;20084;-64
2022/07/31 00:37:08;;;;;;;7.07;3.40;;;23.00;56.50;;;;;;5026888;28;20045;-64
2022/07/31 00:39:35;;;;;;;7.53;3.22;;;23.00;56.60;;;;;;5027314;28;20359;-64
2022/07/31 00:42:01;;;;;;;7.22;3.58;;;22.90;56.60;;;;;;5019753;28;20447;-64
2022/07/31 00:44:27;;;;;;;6.22;3.00;;;22.90;56.60;;;;;;5016990;28;20042;-65
2022/07/31 00:46:53;;;;;;;6.38;2.97;;;22.90;56.70;;;;;;5029457;28;20348;-63
2022/07/31 00:49:19;;;;;;;7.28;3.33;;;22.90;56.80;;;;;;5022860;28;20045;-64
2022/07/31 00:51:45;;;;;;;5.78;2.85;;;22.90;57.00;;;;;;5021014;28;20347;-64
2022/07/31 00:54:11;;;;;;;8.45;3.60;;;22.90;57.00;;;;;;5020336;28;20116;-64
2022/07/31 00:56:37;;;;;;;6.72;3.28;;;22.90;57.20;;;;;;5036376;28;20323;-64
2022/07/31 00:59:03;;;;;;;7.82;3.50;;;22.90;57.30;;;;;;5024805;28;20037;-63
2022/07/31 01:01:29;;;;;;;7.07;2.97;;;22.90;57.30;;;;;;5020250;28;20021;-64
2022/07/31 01:03:55;;;;;;;6.53;3.00;;;22.80;57.40;;;;;;4989809;28;20474;-64
2022/07/31 01:06:21;;;;;;;5.22;2.75;;;22.80;57.40;;;;;;5022137;28;20029;-64
2022/07/31 01:08:47;;;;;;;7.95;3.13;;;22.80;57.50;;;;;;4998691;28;20034;-62
2022/07/31 01:11:21;;;;;;;7.75;3.17;;;22.80;57.70;;;;;;5006390;28;20051;-61
2022/07/31 01:13:58;;;;;;;5.10;2.88;;;22.70;57.70;;;;;;5021590;28;20032;-62
2022/07/31 01:16:29;;;;;;;5.55;2.97;;;22.70;57.80;;;;;;5031623;28;20026;-62
2022/07/31 01:18:56;;;;;;;7.75;3.15;;;22.70;57.90;;;;;;5009831;28;20040;-62
2022/07/31 01:21:48;;;;;;;6.65;3.10;;;22.70;58.10;;;;;;5016764;28;20363;-63
2022/07/31 01:24:33;;;;;;;7.15;3.53;;;22.70;58.20;;;;;;4992994;28;20033;-63
2022/07/31 01:27:24;;;;;;;7.45;3.28;;;22.60;58.30;;;;;;5020606;28;20125;-63
2022/07/31 01:29:55;;;;;;;6.55;3.03;;;22.60;58.30;;;;;;4996746;28;20033;-63
2022/07/31 01:32:28;;;;;;;6.57;3.28;;;22.50;58.40;;;;;;5025250;28;20115;-63
2022/07/31 01:35:05;;;;;;;5.93;2.95;;;22.50;58.50;;;;;;5013164;28;20129;-63
2022/07/31 01:37:39;;;;;;;6.78;3.35;;;22.50;58.60;;;;;;5021593;28;20033;-63
2022/07/31 01:40:12;;;;;;;4.85;2.55;;;22.50;58.70;;;;;;5020868;28;20026;-63
2022/07/31 01:42:43;;;;;;;6.53;3.00;;;22.50;58.80;;;;;;5002892;28;20367;-63
2022/07/31 01:45:11;;;;;;;7.72;2.97;;;22.50;58.90;;;;;;5023178;28;20084;-63
2022/07/31 01:47:38;;;;;;;6.28;3.00;;;22.50;59.00;;;;;;4996094;28;20053;-63
2022/07/31 01:50:06;;;;;;;5.70;2.95;;;22.40;59.10;;;;;;5006570;28;20128;-63
2022/07/31 01:52:33;;;;;;;7.15;3.30;;;22.40;59.20;;;;;;5016039;28;20037;-63
2022/07/31 01:55:01;;;;;;;5.60;2.60;;;22.40;59.40;;;;;;5012880;28;20077;-63
2022/07/31 01:57:28;;;;;;;5.75;2.92;;;22.40;59.50;;;;;;5031752;28;20427;-62
2022/07/31 02:00:00;;;;;;;5.43;2.72;;;22.40;59.60;;;;;;5028132;28;20013;-63
2022/07/31 02:02:48;;;;;;;6.30;2.95;;;22.30;59.70;;;;;;5006733;28;20049;-63
2022/07/31 02:05:16;;;;;;;6.10;3.10;;;22.30;59.80;;;;;;5026744;28;20022;-62
2022/07/31 02:07:43;;;;;;;6.57;3.20;;;22.30;59.90;;;;;;5030374;28;20030;-63
2022/07/31 02:10:12;;;;;;;5.32;2.72;;;22.30;59.90;;;;;;5022476;28;20056;-63
2022/07/31 02:12:39;;;;;;;6.68;3.15;;;22.30;60.00;;;;;;5002652;28;20037;-63
2022/07/31 02:15:13;;;;;;;7.60;3.08;;;22.30;60.10;;;;;;5025419;28;20026;-63
2022/07/31 02:17:44;;;;;;;7.28;2.97;;;22.30;60.20;;;;;;5025891;28;20340;-63
2022/07/31 02:20:23;;;;;;;6.10;2.70;;;22.30;60.40;;;;;;5013092;28;20041;-63
2022/07/31 02:22:54;;;;;;;6.85;3.13;;;22.30;60.40;;;;;;5017116;28;20029;-63
2022/07/31 02:25:20;;;;;;;6.72;3.10;;;22.30;60.50;;;;;;5010833;28;20080;-63
2022/07/31 02:27:47;;;;;;;5.55;3.10;;;22.30;60.60;;;;;;5031083;28;20112;-63
2022/07/31 02:30:14;;;;;;;6.15;2.85;;;22.20;60.60;;;;;;5017292;28;20112;-63
2022/07/31 02:32:43;;;;;;;8.07;3.63;;;22.20;60.70;;;;;;5020980;28;20129;-63
2022/07/31 02:35:12;;;;;;;6.60;3.30;;;22.20;60.80;;;;;;5028835;28;20040;-63
2022/07/31 02:37:38;;;;;;;6.47;3.05;;;22.20;60.80;;;;;;5024998;28;20026;-63
2022/07/31 02:40:06;;;;;;;5.75;3.08;;;22.20;60.90;;;;;;5010850;28;20109;-63
2022/07/31 02:42:33;;;;;;;5.32;2.88;;;22.20;61.10;;;;;;5025073;28;20116;-63
2022/07/31 02:45:00;;;;;;;6.30;3.03;;;22.10;61.10;;;;;;5007573;28;20037;-62
2022/07/31 02:47:27;;;;;;;6.22;3.40;;;22.10;61.20;;;;;;5031177;28;20025;-63
2022/07/31 02:49:56;;;;;;;6.47;3.05;;;22.10;61.20;;;;;;5010142;28;20062;-63
2022/07/31 02:52:23;;;;;;;5.63;2.97;;;22.10;61.40;;;;;;5019967;28;20033;-63
2022/07/31 02:54:50;;;;;;;7.03;3.00;;;22.10;61.40;;;;;;5015981;28;20036;-63
2022/07/31 02:57:16;;;;;;;8.48;3.20;;;22.10;61.40;;;;;;5019320;28;20384;-63
2022/07/31 02:59:42;;;;;;;6.22;3.08;;;22.10;61.40;;;;;;5014242;28;20026;-63
2022/07/31 03:02:09;;;;;;;6.95;3.20;;;22.10;61.40;;;;;;5009764;28;20146;-63
2022/07/31 03:04:41;;;;;;;5.68;2.85;;;22.10;61.50;;;;;;4993885;28;20070;-63
2022/07/31 03:07:08;;;;;;;5.70;2.95;;;22.10;61.50;;;;;;5009205;28;20036;-63
2022/07/31 03:09:34;;;;;;;6.53;3.03;;;22.10;61.60;;;;;;5026518;28;20452;-63
2022/07/31 03:12:28;;;;;;;8.20;3.25;;;22.10;61.70;;;;;;5012013;28;20115;-63
2022/07/31 03:14:55;;;;;;;6.07;2.83;;;22.10;61.70;;;;;;5014208;28;20125;-63
2022/07/31 03:17:22;;;;;;;8.32;3.03;;;22.10;61.80;;;;;;4996709;28;20108;-63
2022/07/31 03:19:49;;;;;;;7.13;3.05;;;22.10;61.80;;;;;;5013028;28;20033;-63
2022/07/31 03:22:15;;;;;;;6.75;3.45;;;22.10;61.90;;;;;;5022674;28;20103;-63
2022/07/31 03:24:40;;;;;;;6.72;3.50;;;22.10;61.90;;;;;;5020026;28;20455;-62
2022/07/31 03:27:07;;;;;;;6.60;2.95;;;22.10;61.90;;;;;;5014577;28;20026;-63
2022/07/31 03:29:37;;;;;;;7.05;3.38;;;22.10;62.00;;;;;;5023003;28;20030;-63
2022/07/31 03:32:04;;;;;;;5.90;3.05;;;22.10;62.20;;;;;;5019312;28;20029;-62
2022/07/31 03:34:30;;;;;;;5.20;2.85;;;22.00;62.10;;;;;;5028746;28;20113;-63
2022/07/31 03:36:57;;;;;;;7.00;3.05;;;22.00;62.20;;;;;;5010689;28;20057;-63
2022/07/31 03:39:24;;;;;;;6.38;3.17;;;22.00;62.20;;;;;;5023362;28;20036;-63
2022/07/31 03:41:51;;;;;;;8.35;3.35;;;22.00;62.30;;;;;;5003049;28;20030;-63
2022/07/31 03:44:19;;;;;;;5.32;3.08;;;22.00;62.40;;;;;;5010617;28;20034;-63
2022/07/31 03:46:44;;;;;;;5.95;3.00;;;22.00;62.50;;;;;;5028410;28;20029;-63
2022/07/31 03:49:10;;;;;;;6.63;3.50;;;22.00;62.60;;;;;;5011782;28;20413;-62
2022/07/31 03:51:37;;;;;;;5.78;2.97;;;22.00;62.60;;;;;;5010852;28;20029;-62
2022/07/31 03:54:03;;;;;;;6.75;3.08;;;22.00;62.70;;;;;;5003633;28;20026;-63
2022/07/31 03:56:48;;;;;;;7.05;3.25;;;22.00;62.70;;;;;;5011974;28;20033;-63
2022/07/31 03:59:15;;;;;;;7.07;3.63;;;22.00;62.80;;;;;;5004657;28;20022;-63
2022/07/31 04:01:43;;;;;;;5.95;2.88;;;22.00;62.80;;;;;;5010985;28;20030;-63
2022/07/31 04:04:13;;;;;;;8.40;3.47;;;22.00;62.90;;;;;;5009863;28;20026;-62
2022/07/31 04:06:53;;;;;;;8.23;3.67;;;22.00;62.90;;;;;;5011369;28;20045;-63
2022/07/31 04:09:19;;;;;;;7.68;3.78;;;22.00;63.00;;;;;;5005257;28;20443;-63
2022/07/31 04:11:47;;;;;;;6.68;3.90;;;22.00;63.10;;;;;;5006440;28;20060;-62
2022/07/31 04:14:12;;;;;;;8.88;4.82;;;22.00;63.20;;;;;;5007689;28;20428;-63
2022/07/31 04:16:38;;;;;;;7.22;4.10;;;22.00;63.30;;;;;;5011721;28;20025;-63
2022/07/31 04:19:04;;;;;;;7.10;4.32;;;22.00;63.50;;;;;;5012082;28;20030;-63
2022/07/31 04:21:29;;;;;;;8.25;4.75;;;22.00;63.60;;;;;;5007296;28;20032;-63
2022/07/31 04:23:55;;;;;;;7.80;5.38;;;21.90;63.70;;;;;;5011730;28;20029;-63
2022/07/31 04:26:48;;;;;;;8.30;4.60;;;22.00;63.80;;;;;;5004902;28;20109;-62
2022/07/31 04:29:14;;;;;;;8.70;5.38;;;21.90;63.80;;;;;;5002952;28;20032;-63
2022/07/31 04:31:40;;;;;;;8.15;5.13;;;21.90;64.00;;;;;;5013047;28;20029;-63
2022/07/31 04:34:08;;;;;;;9.55;5.85;;;21.90;64.10;;;;;;4988153;28;20424;-63
2022/07/31 04:36:34;;;;;;;10.02;5.43;;;21.90;64.20;;;;;;5012976;28;20036;-63
2022/07/31 04:39:00;;;;;;;8.43;4.88;;;21.90;64.30;;;;;;5015855;28;20021;-62
2022/07/31 04:41:27;;;;;;;7.82;5.20;;;21.90;64.40;;;;;;5013345;28;20022;-63
2022/07/31 04:43:53;;;;;;;9.20;5.78;;;21.90;64.50;;;;;;5017559;28;20367;-63
2022/07/31 04:46:20;;;;;;;10.80;6.10;;;21.90;64.50;;;;;;5017874;28;20032;-63
2022/07/31 04:48:45;;;;;;;12.05;5.80;;;21.90;64.50;;;;;;5019578;28;20025;-63
2022/07/31 04:51:20;;;;;;;8.95;5.85;;;21.90;64.50;;;;;;4999295;28;20026;-63
2022/07/31 04:53:46;;;;;;;9.43;6.07;;;21.90;64.50;;;;;;5017232;28;20026;-63
2022/07/31 04:58:57;;;;;;;13.13;6.55;;;21.90;64.50;;;;;;5016838;28;20451;-62
2022/07/31 05:01:23;;;;;;;10.18;6.40;;;21.90;64.60;;;;;;5011774;28;20022;-64
2022/07/31 05:03:49;;;;;;;9.00;5.63;;;21.90;64.60;;;;;;5014374;28;20018;-66
2022/07/31 05:06:14;;;;;;;9.07;5.72;;;21.90;64.70;;;;;;5014039;28;20029;-66
2022/07/31 05:08:40;;;;;;;8.45;5.50;;;21.90;64.70;;;;;;5017376;28;20022;-65
2022/07/31 05:11:22;;;;;;;8.32;5.38;;;21.90;64.80;;;;;;5021469;28;20454;-66
2022/07/31 05:13:57;;;;;;;10.32;5.07;;;21.90;64.90;;;;;;5013697;28;20036;-65
2022/07/31 05:16:23;;;;;;;10.77;5.70;;;21.90;65.10;;;;;;5031761;28;20025;-65
2022/07/31 05:18:50;;;;;;;8.93;5.55;;;22.00;65.30;;;;;;5035068;28;20425;-65
2022/07/31 05:21:31;;;;;;;10.77;5.80;;;21.90;65.60;;;;;;5025418;28;20034;-65
2022/07/31 05:24:22;;;;;;;8.68;5.50;;;22.00;65.90;;;;;;5020898;28;20045;-66
2022/07/31 05:27:00;;;;;;;10.70;5.57;;;22.00;65.90;;;;;;5005474;28;20033;-65
2022/07/31 05:29:25;;;;;;;8.75;5.00;;;22.00;66.00;;;;;;5021238;28;20025;-65
2022/07/31 05:31:51;;;;;;;8.32;5.30;;;22.00;66.10;;;;;;5019016;28;20331;-65
2022/07/31 05:34:17;;;;;;;9.93;5.10;;;22.10;66.10;;;;;;5018569;28;20022;-65
2022/07/31 05:36:43;;;;;;;9.80;5.55;;;22.10;66.00;;;;;;5021143;28;20030;-65
2022/07/31 05:39:11;;;;;;;10.13;6.18;;;22.10;65.70;;;;;;5035929;28;20025;-66
2022/07/31 05:41:39;;;;;;;10.10;5.78;;;22.20;65.70;;;;;;5030725;28;20026;-65
2022/07/31 05:44:05;;;;;;;10.65;6.07;;;22.20;65.50;;;;;;5014617;28;20462;-65
2022/07/31 05:46:38;;;;;;;9.93;5.07;;;22.30;65.50;;;;;;5018235;28;20041;-66
2022/07/31 05:49:03;;;;;;;14.00;6.70;;;22.30;65.40;;;;;;5037236;28;20354;-65
2022/07/31 05:51:29;;;;;;;10.13;6.35;;;22.30;65.40;;;;;;5029667;28;20025;-65
2022/07/31 05:53:55;;;;;;;10.48;6.20;;;22.30;65.30;;;;;;5017279;28;20049;-66
2022/07/31 05:56:50;;;;;;;11.32;5.72;;;22.40;65.30;;;;;;4994924;28;20045;-65
2022/07/31 05:59:19;;;;;;;9.95;5.95;;;22.40;65.20;;;;;;4978760;28;20114;-65
2022/07/31 06:01:45;;;;;;;9.32;6.05;;;22.40;65.10;;;;;;4978887;28;20120;-65
2022/07/31 06:04:11;;;;;;;12.07;7.05;;;22.40;65.10;;;;;;4979075;28;20375;-66
2022/07/31 06:06:41;;;;;;;10.05;6.85;;;22.40;65.10;;;;;;4983441;28;20034;-65
2022/07/31 06:09:07;;;;;;;11.88;7.32;;;22.40;65.20;;;;;;5000988;28;20037;-65
2022/07/31 06:11:36;;;;;;;12.07;7.60;;;22.30;65.20;;;;;;4983217;28;20054;-65
2022/07/31 06:14:02;;;;;;;10.52;7.40;;;22.30;65.20;;;;;;4978170;28;20040;-66
2022/07/31 06:16:46;;;;;;;14.07;7.13;;;22.30;65.90;;;;;;4977803;28;20185;-66
2022/07/31 06:19:12;;;;;;;10.63;7.07;;;22.20;65.30;;;;;;4980568;28;20032;-66
2022/07/31 06:21:37;;;;;;;13.63;7.80;;;22.20;65.50;;;;;;4978183;28;20023;-67
2022/07/31 06:24:03;;;;;;;11.50;7.00;;;22.20;65.50;;;;;;4994559;28;20310;-67
2022/07/31 06:26:38;;;;;;;12.80;7.75;;;22.20;65.50;;;;;;4994355;28;20038;-66
2022/07/31 06:29:04;;;;;;;10.77;7.78;;;22.20;65.50;;;;;;4993903;28;20530;-67
2022/07/31 06:31:30;;;;;;;15.32;8.10;;;22.20;65.50;;;;;;4978204;28;20125;-67
2022/07/31 06:33:57;;;;;;;10.85;7.45;;;22.20;65.50;;;;;;5006472;28;20034;-67
2022/07/31 06:36:27;;;;;;;11.68;7.97;;;22.20;65.70;;;;;;5028721;28;20097;-67
2022/07/31 06:38:56;;;;;;;10.38;6.97;;;22.20;65.70;;;;;;5032266;28;20026;-67
2022/07/31 06:41:43;;;;;;;11.63;7.50;;;22.30;65.80;;;;;;5029694;28;20116;-67
2022/07/31 06:44:33;;;;;;;10.40;6.97;;;22.30;65.90;;;;;;4974921;28;20101;-66
2022/07/31 06:47:20;;;;;;;11.88;7.22;;;22.30;65.80;;;;;;4975508;28;20128;-67
2022/07/31 06:49:48;;;;;;;10.75;7.13;;;22.30;65.80;;;;;;4979350;28;20045;-67
2022/07/31 06:52:15;;;;;;;10.57;7.30;;;22.40;65.80;;;;;;4947545;28;20460;-64
2022/07/31 06:54:42;;;;;;;12.45;8.40;;;22.40;65.60;;;;;;4964785;28;20033;-65
2022/07/31 06:57:09;;;;;;;13.20;8.25;;;22.50;65.50;;;;;;4969536;28;20416;-65
2022/07/31 06:59:35;;;;;;;13.55;8.65;;;22.50;65.40;;;;;;4981783;28;20349;-65
2022/07/31 07:02:00;;;;;;;12.00;8.88;;;22.50;65.30;;;;;;4972138;28;20041;-66
2022/07/31 07:04:26;;;;;;;12.90;8.18;;;22.50;65.30;;;;;;4974672;28;20112;-65
2022/07/31 07:06:51;;;;;;;10.80;8.18;;;22.50;65.30;;;;;;4982136;28;20030;-65
2022/07/31 07:09:17;;;;;;;11.82;8.30;;;22.50;65.50;;;;;;4969917;28;20117;-66
2022/07/31 07:11:46;;;;;;;12.95;7.95;;;22.50;65.60;;;;;;4978201;28;20449;-66
2022/07/31 07:14:12;;;;;;;11.68;9.27;;;22.50;65.60;;;;;;4994154;28;20133;-66
2022/07/31 07:16:38;;;;;;;12.38;8.45;;;22.50;65.60;;;;;;4977879;28;20034;-66
2022/07/31 07:19:03;;;;;;;12.25;8.00;;;22.50;65.60;;;;;;4988507;28;20070;-65
2022/07/31 07:21:30;;;;;;;11.43;8.02;;;22.50;65.60;;;;;;4985978;28;20129;-66
2022/07/31 07:23:56;;;;;;;12.23;8.55;;;22.50;65.60;;;;;;5034397;28;20037;-66
2022/07/31 07:26:27;;;;;;;14.02;9.20;;;22.50;65.60;;;;;;5034263;28;20478;-66
2022/07/31 07:28:53;;;;;;;11.10;7.45;;;22.50;65.60;;;;;;5018091;28;20060;-66
2022/07/31 07:31:19;;;;;;;11.50;8.38;;;22.40;65.60;;;;;;5035001;28;20040;-66
2022/07/31 07:33:46;;;;;;;12.25;8.50;;;22.40;65.60;;;;;;5034077;28;20163;-66
2022/07/31 07:36:14;;;;;;;12.57;8.10;;;22.40;65.70;;;;;;5026623;28;20335;-66
2022/07/31 07:38:40;;;;;;;11.43;7.82;;;22.40;65.60;;;;;;5031454;28;20024;-66
2022/07/31 07:41:06;;;;;;;12.10;8.00;;;22.50;65.70;;;;;;5017687;28;20021;-66
2022/07/31 07:43:31;;;;;;;12.18;7.78;;;22.50;65.80;;;;;;5034279;28;20176;-66
2022/07/31 07:45:57;;;;;;;12.13;7.68;;;22.40;65.80;;;;;;5034099;28;20053;-66
2022/07/31 07:48:23;;;;;;;10.85;7.32;;;22.50;65.90;;;;;;5017916;28;20033;-66
2022/07/31 07:51:11;;;;;;;11.55;7.10;;;22.50;65.70;;;;;;5022525;28;20527;-66
2022/07/31 07:53:47;;;;;;;11.93;7.28;;;22.60;65.70;;;;;;5023785;28;20026;-67
2022/07/31 07:56:19;;;;;;;12.35;7.82;;;22.60;65.70;;;;;;5034915;28;20029;-66
2022/07/31 07:58:51;;;;;;;11.10;7.38;;;22.60;65.80;;;;;;5027084;28;20041;-66
2022/07/31 08:01:35;;;;;;;12.13;6.88;;;22.50;65.90;;;;;;5034637;28;20040;-66
2022/07/31 08:04:13;;;;;;;9.85;6.63;;;22.50;66.10;;;;;;5002218;28;20128;-67
2022/07/31 08:06:38;;;;;;;10.95;7.63;;;22.50;66.20;;;;;;5026862;28;20153;-67
2022/07/31 08:09:04;;;;;;;11.18;6.82;;;22.50;66.30;;;;;;5015213;28;20072;-66
2022/07/31 08:11:53;;;;;;;11.88;6.90;;;22.50;66.40;;;;;;4997578;28;20069;-67
2022/07/31 08:14:36;;;;;;;9.98;6.97;;;22.40;66.30;;;;;;4996122;28;20030;-67
2022/07/31 08:17:20;;;;;;;10.65;7.13;;;22.50;66.30;;;;;;5016619;28;20104;-66
2022/07/31 08:19:46;;;;;;;10.98;7.03;;;22.60;66.30;;;;;;5016974;28;20030;-66
2022/07/31 08:22:12;;;;;;;11.52;7.00;;;22.60;66.30;;;;;;5014546;28;20114;-66
2022/07/31 08:24:38;;;;;;;10.85;6.80;;;22.70;66.30;;;;;;5012888;28;20033;-66
2022/07/31 08:29:52;;;;;;;10.68;6.88;;;22.80;66.20;;;;;;5012565;28;20116;-67
2022/07/31 08:32:19;;;;;;;13.25;7.15;;;22.80;66.20;;;;;;5018125;28;20103;-66
2022/07/31 08:35:14;;;;;;;12.82;7.10;;;22.80;66.30;;;;;;5002995;28;20153;-67
2022/07/31 08:37:41;;;;;;;10.02;6.63;;;22.90;66.30;;;;;;5009443;28;20498;-67
2022/07/31 08:40:07;;;;;;;13.18;7.45;;;23.00;66.20;;;;;;5017428;28;20034;-66
2022/07/31 08:42:32;;;;;;;12.18;7.05;;;23.00;66.10;;;;;;5017603;28;20030;-66
2022/07/31 08:44:58;;;;;;;11.20;6.30;;;23.10;66.00;;;;;;5003605;28;20049;-66
2022/07/31 08:47:32;;;;;;;11.38;7.47;;;23.10;65.80;;;;;;4997765;28;20454;-66
2022/07/31 08:50:04;;;;;;;9.32;6.70;;;23.30;65.70;;;;;;4984784;28;20440;-66
2022/07/31 08:52:31;;;;;;;12.95;6.88;;;23.40;65.40;;;;;;4993357;28;20031;-67
2022/07/31 08:55:06;;;;;;;12.60;7.32;;;23.40;65.20;;;;;;4993851;28;20030;-66
2022/07/31 08:57:32;;;;;;;10.95;6.82;;;23.50;65.00;;;;;;4987873;28;20429;-66
2022/07/31 08:59:58;;;;;;;10.82;6.72;;;23.70;64.70;;;;;;5008456;28;20030;-66
2022/07/31 09:02:24;;;;;;;9.88;6.53;;;23.80;64.40;;;;;;4995735;28;20360;-66
2022/07/31 09:05:09;;;;;;;9.20;6.30;;;23.90;64.20;;;;;;4992294;28;20049;-67
2022/07/31 09:07:35;;;;;;;10.85;6.65;;;23.90;64.20;;;;;;5004001;28;20029;-66
2022/07/31 09:10:05;;;;;;;9.90;5.90;;;23.90;64.20;;;;;;5017056;28;20180;-66
2022/07/31 09:12:32;;;;;;;11.88;6.25;;;23.90;64.20;;;;;;5015025;28;20049;-66
2022/07/31 09:15:19;;;;;;;9.43;6.20;;;24.00;64.10;;;;;;5015078;28;20061;-67
2022/07/31 09:17:45;;;;;;;10.15;6.10;;;24.00;64.10;;;;;;5005390;28;20022;-66
2022/07/31 09:20:17;;;;;;;10.15;6.55;;;24.00;64.10;;;;;;5013332;28;20022;-66
2022/07/31 09:22:43;;;;;;;11.75;6.82;;;24.00;64.10;;;;;;4998094;28;20458;-66
2022/07/31 09:25:11;;;;;;;9.65;6.03;;;24.00;64.10;;;;;;5014046;28;20030;-67
2022/07/31 09:27:37;;;;;;;12.70;7.00;;;23.90;64.20;;;;;;5012168;28;20064;-66
2022/07/31 09:30:04;;;;;;;11.25;6.45;;;23.90;64.30;;;;;;5015775;28;20030;-66
2022/07/31 09:33:17;;;;;;;9.43;6.05;;;23.90;64.40;;;;;;5006597;28;20072;-67
2022/07/31 09:36:08;;;;;;;8.93;6.07;;;23.90;64.40;;;;;;5014193;28;20042;-67
2022/07/31 09:38:38;;;;;;;12.00;6.47;;;23.90;64.30;;;;;;5008981;28;20030;-67
2022/07/31 09:41:23;;;;;;;10.75;6.72;;;23.90;64.40;;;;;;5006327;28;20405;-66
2022/07/31 09:44:17;;;;;;;11.23;7.70;;;23.90;64.50;;;;;;5005535;28;20103;-67
2022/07/31 09:46:45;;;;;;;14.15;7.28;;;23.90;64.50;;;;;;5010372;28;20022;-67
2022/07/31 09:49:12;;;;;;;11.90;7.15;;;24.00;64.90;;;;;;5007115;28;20048;-67
2022/07/31 09:51:47;;;;;;;12.20;7.63;;;24.00;65.10;;;;;;4993810;28;20022;-67
2022/07/31 09:54:26;;;;;;;11.98;6.90;;;24.00;65.40;;;;;;5011563;28;20064;-67
2022/07/31 09:56:52;;;;;;;11.05;7.13;;;23.90;65.60;;;;;;5006485;28;20069;-66
2022/07/31 09:59:18;;;;;;;12.10;7.50;;;23.90;65.90;;;;;;5010371;28;20116;-66
2022/07/31 10:01:49;;;;;;;11.45;7.30;;;23.90;66.30;;;;;;5013180;28;20105;-67
2022/07/31 10:04:20;;;;;;;11.90;6.75;;;23.80;66.60;;;;;;5023707;28;20419;-67
2022/07/31 10:06:47;;;;;;;;;;;23.80;67.00;;;;;;5014947;28;20080;-67
2022/07/31 10:09:14;;;;;;;11.70;6.95;;;23.80;66.80;;;;;;4995529;28;19916;-67
2022/07/31 10:12:14;;;;;;;11.95;7.50;;;23.80;67.20;;;;;;5016213;28;20065;-68
2022/07/31 10:14:42;;;;;;;12.77;8.07;;;23.70;67.60;;;;;;5013692;28;20510;-71
2022/07/31 10:17:10;;;;;;;13.82;8.48;;;23.70;68.20;;;;;;4995797;28;20104;-68
2022/07/31 10:19:56;;;;;;;13.07;8.85;;;23.60;68.90;;;;;;5001686;28;20021;-67
2022/07/31 10:22:47;;;;;;;12.00;9.13;;;23.60;69.60;;;;;;4995852;28;20030;-67
2022/07/31 10:25:25;;;;;;;13.75;9.05;;;23.50;70.00;;;;;;4995043;28;20064;-67
2022/07/31 10:27:56;;;;;;;14.07;8.90;;;23.50;70.40;;;;;;5013609;28;20041;-67
2022/07/31 10:30:23;;;;;;;14.73;9.43;;;23.50;70.70;;;;;;5011303;28;20022;-68
2022/07/31 10:32:52;;;;;;;13.32;9.88;;;23.50;70.90;;;;;;5013586;28;20112;-67
2022/07/31 10:35:27;;;;;;;14.95;9.77;;;23.50;71.00;;;;;;5011120;28;20498;-68
2022/07/31 10:38:21;;;;;;;14.57;8.88;;;23.60;71.20;;;;;;5001326;28;20058;-67
2022/07/31 10:41:24;;;;;;;12.70;8.98;;;23.60;71.60;;;;;;5009005;28;20030;-67
2022/07/31 10:43:59;;;;;;;12.98;9.07;;;23.60;71.70;;;;;;4935122;29;20088;-67
2022/07/31 10:46:48;;;;;;;13.63;10.15;;;23.60;71.90;;;;;;4939960;28;20129;-67
2022/07/31 10:49:43;;;;;;;15.68;9.73;;;23.50;72.40;;;;;;4954558;28;20070;-68
2022/07/31 10:52:33;;;;;;;14.45;10.93;;;23.50;71.90;;;;;;4955404;28;20031;-69
2022/07/31 10:55:23;;;;;;;13.48;9.30;;;23.60;72.10;;;;;;4966186;28;20031;-68
2022/07/31 10:58:18;;;;;;;15.23;10.30;;;23.70;72.00;;;;;;4972193;28;20038;-67
2022/07/31 11:01:03;;;;;;;13.32;10.70;;;23.80;71.70;;;;;;4953130;28;20031;-67
2022/07/31 11:03:51;;;;;;;14.50;10.63;;;23.90;71.20;;;;;;4957601;28;20065;-68
2022/07/31 11:06:40;;;;;;;14.77;11.10;;;23.90;71.10;;;;;;4951208;28;20046;-68
2022/07/31 11:09:29;;;;;;;15.70;10.40;;;23.90;71.00;;;;;;4971709;28;20456;-67
2022/07/31 11:12:27;;;;;;;14.98;10.70;;;24.00;70.80;;;;;;4963345;28;20047;-68
2022/07/31 11:15:28;;;;;;;13.35;10.63;;;23.90;70.80;;;;;;4948477;28;20194;-69
2022/07/31 11:18:18;;;;;;;14.43;10.85;;;23.90;70.90;;;;;;4959403;28;20516;-69
2022/07/31 11:21:02;;;;;;;12.52;10.98;;;23.80;71.20;;;;;;5000027;28;20037;-69
2022/07/31 11:23:29;;;;;;;16.85;12.50;;;23.70;71.30;;;;;;5013865;28;20050;-67
2022/07/31 11:26:02;;;;;;;15.43;12.90;;;23.70;71.40;;;;;;5014532;28;20057;-68
2022/07/31 11:28:27;;;;;;;15.23;12.50;;;23.70;71.70;;;;;;5018341;28;20033;-68
2022/07/31 11:31:03;;;;;;;15.13;12.27;;;23.70;71.80;;;;;;5009074;28;20368;-68
2022/07/31 11:33:31;;;;;;;16.75;13.25;;;23.80;71.90;;;;;;5016300;28;20107;-68
2022/07/31 11:36:11;;;;;;;14.63;12.77;;;23.80;71.80;;;;;;5009142;28;20037;-68
2022/07/31 11:38:40;;;;;;;15.52;13.02;;;23.90;72.00;;;;;;5000681;28;20013;-67
2022/07/31 11:41:06;;;;;;;17.38;13.63;;;23.90;71.90;;;;;;5013795;28;20085;-67
2022/07/31 11:43:38;;;;;;;15.73;13.68;;;23.90;71.90;;;;;;5024148;28;20440;-67
2022/07/31 11:46:04;;;;;;;15.07;12.88;;;23.90;72.10;;;;;;5014967;28;20040;-66
2022/07/31 11:48:31;;;;;;;15.40;12.75;;;23.90;72.40;;;;;;4997748;28;20521;-62
2022/07/31 11:50:58;;;;;;;17.45;13.77;;;23.90;72.60;;;;;;5010530;28;20030;-62
2022/07/31 11:53:24;;;;;;;16.15;14.15;;;23.90;72.80;;;;;;5016296;28;20109;-63
2022/07/31 11:55:54;;;;;;;15.90;13.23;;;23.80;72.80;;;;;;5008411;28;20105;-64
2022/07/31 11:58:22;;;;;;;15.95;13.60;;;23.80;72.90;;;;;;5015628;28;20124;-63
2022/07/31 12:00:59;;;;;;;16.52;13.55;;;23.80;72.90;;;;;;5008172;28;20036;-63
2022/07/31 12:03:33;;;;;;;16.05;13.32;;;23.90;72.80;;;;;;5007816;28;20026;-63
2022/07/31 12:05:59;;;;;;;13.05;10.60;;;24.10;72.20;;;;;;5010725;28;20040;-63
2022/07/31 12:08:27;;;;;;;15.27;11.52;;;24.30;71.70;;;;;;5008630;28;20455;-63
2022/07/31 12:10:54;;;;;;;12.35;10.95;;;24.50;71.90;;;;;;4992262;28;20042;-63
2022/07/31 12:13:21;;;;;;;15.88;12.82;;;24.60;71.00;;;;;;5010271;28;20068;-63
2022/07/31 12:16:03;;;;;;;12.90;11.52;;;24.60;70.70;;;;;;5008551;28;20482;-63
2022/07/31 12:18:51;;;;;;;13.85;11.57;;;24.60;70.90;;;;;;5007320;28;20375;-63
2022/07/31 12:21:18;;;;;;;14.27;11.88;;;24.50;70.90;;;;;;5010620;28;20045;-63
2022/07/31 12:23:47;;;;;;;13.73;10.57;;;24.40;71.00;;;;;;5009233;28;20366;-63
2022/07/31 12:26:24;;;;;;;11.98;10.77;;;24.30;71.30;;;;;;5008898;28;20022;-62
2022/07/31 12:28:59;;;;;;;12.15;10.55;;;24.20;71.60;;;;;;5007526;28;20026;-63
2022/07/31 12:31:24;;;;;;;12.00;10.07;;;24.20;71.90;;;;;;5007969;28;20168;-63
2022/07/31 12:33:53;;;;;;;11.70;9.48;;;24.20;71.70;;;;;;5003168;28;20117;-63
2022/07/31 12:36:19;;;;;;;11.68;9.15;;;24.20;71.40;;;;;;5005575;28;20034;-63
2022/07/31 12:38:45;;;;;;;10.95;8.30;;;24.20;71.20;;;;;;5010705;28;20228;-64
2022/07/31 12:41:12;;;;;;;13.20;9.35;;;24.30;71.10;;;;;;5011248;28;20123;-63
2022/07/31 12:43:37;;;;;;;11.40;9.07;;;24.30;71.00;;;;;;5017858;28;20021;-63
2022/07/31 12:46:06;;;;;;;10.02;8.55;;;24.20;71.00;;;;;;5005437;28;20466;-63
2022/07/31 12:48:32;;;;;;;11.50;8.65;;;24.20;71.00;;;;;;5016620;28;20364;-63
2022/07/31 12:50:59;;;;;;;11.23;8.80;;;24.20;71.00;;;;;;5007323;28;20033;-63
2022/07/31 12:53:28;;;;;;;9.50;7.88;;;24.20;70.90;;;;;;5010985;28;20526;-63
2022/07/31 12:55:54;;;;;;;10.55;7.80;;;24.10;70.90;;;;;;5013245;28;20088;-63
2022/07/31 12:58:19;;;;;;;10.98;7.60;;;24.20;70.90;;;;;;5015538;28;20446;-63
2022/07/31 13:00:45;;;;;;;9.98;6.93;;;24.30;70.60;;;;;;5006671;28;20021;-63
2022/07/31 13:03:11;;;;;;;9.05;6.72;;;24.40;70.10;;;;;;5016411;28;20355;-63
2022/07/31 13:05:36;;;;;;;9.45;6.80;;;24.60;69.90;;;;;;5015395;28;20422;-63